Time;durP1;ratioP1;P1;durP2;ratioP2;P2;SDS_P1;SDS_P2;PMS_P1;PMS_P2;Temp;Humidity;BMP_temperature;BMP_pressure;BME280_temperature;BME280_humidity;BME280_pressure;Samples;Min_cycle;Max_cycle;Signal;HPM_P1;HPM_P2
2023/06/05 00:01:40;;;;;;;2.20;2.10;;;;;;;;;;5045979;28;20227;-66
2023/06/05 00:04:08;;;;;;;3.72;2.42;;;;;;;;;;5042125;28;20201;-66
2023/06/05 00:06:37;;;;;;;2.35;2.15;;;;;;;;;;5044738;28;20223;-66
2023/06/05 00:09:04;;;;;;;2.90;2.00;;;;;;;;;;5046901;28;20254;-66
2023/06/05 00:11:32;;;;;;;2.58;2.30;;;;;;;;;;5044985;28;20241;-66
2023/06/05 00:14:00;;;;;;;2.38;2.20;;;;;;;;;;5044967;28;20196;-66
2023/06/05 00:16:27;;;;;;;3.65;2.10;;;;;;;;;;5046930;28;20219;-67
2023/06/05 00:18:54;;;;;;;2.50;2.30;;;;;;;;;;5043667;28;20195;-66
2023/06/05 00:21:22;;;;;;;2.58;2.40;;;;;;;;;;5046304;28;20222;-66
2023/06/05 00:23:49;;;;;;;2.90;2.10;;;;;;;;;;5045519;28;20293;-66
2023/06/05 00:26:16;;;;;;;2.53;2.17;;;;;;;;;;5047194;28;20215;-66
2023/06/05 00:28:45;;;;;;;2.85;2.17;;;;;;;;;;5045752;28;20211;-66
2023/06/05 00:31:12;;;;;;;2.25;2.05;;;;;;;;;;5041214;28;20196;-66
2023/06/05 00:33:40;;;;;;;2.38;2.17;;;;;;;;;;5045972;28;20227;-66
2023/06/05 00:36:07;;;;;;;2.38;2.05;;;;;;;;;;5043526;28;20204;-66
2023/06/05 00:38:34;;;;;;;3.75;2.25;;;;;;;;;;5045340;28;20210;-66
2023/06/05 00:41:01;;;;;;;2.70;2.25;;;;;;;;;;5047141;28;20245;-65
2023/06/05 00:43:28;;;;;;;2.20;2.00;;;;;;;;;;5041736;28;20217;-66
2023/06/05 00:45:59;;;;;;;4.07;2.17;;;;;;;;;;5044930;28;20208;-66
2023/06/05 00:48:26;;;;;;;4.32;2.38;;;;;;;;;;5042510;28;20218;-66
2023/06/05 00:50:53;;;;;;;3.05;2.08;;;;;;;;;;5042428;28;20218;-65
2023/06/05 00:53:20;;;;;;;2.10;2.00;;;;;;;;;;5039481;28;20210;-66
2023/06/05 00:55:48;;;;;;;3.13;1.90;;;;;;;;;;5045992;28;20204;-66
2023/06/05 00:58:16;;;;;;;2.28;2.15;;;;;;;;;;5042685;28;20208;-66
2023/06/05 01:00:45;;;;;;;2.28;2.10;;;;;;;;;;5046708;28;20250;-66
2023/06/05 01:03:13;;;;;;;2.10;2.00;;;;;;;;;;5038783;28;20211;-65
2023/06/05 01:05:43;;;;;;;2.10;1.90;;;;;;;;;;5045671;28;20203;-66
2023/06/05 01:08:12;;;;;;;2.38;2.17;;;;;;;;;;5044483;28;20238;-65
2023/06/05 01:10:39;;;;;;;2.20;2.10;;;;;;;;;;5047802;28;20292;-66
2023/06/05 01:13:10;;;;;;;2.42;1.90;;;;;;;;;;5043119;28;20208;-65
2023/06/05 01:15:39;;;;;;;2.40;2.20;;;;;;;;;;5049967;28;20206;-65
2023/06/05 01:18:08;;;;;;;2.38;2.10;;;;;;;;;;5045504;28;20204;-65
2023/06/05 01:20:37;;;;;;;3.15;1.98;;;;;;;;;;5040543;28;20266;-66
2023/06/05 01:23:06;;;;;;;2.33;2.10;;;;;;;;;;5046187;28;20231;-65
2023/06/05 01:25:34;;;;;;;2.03;1.92;;;;;;;;;;5042943;28;20299;-66
2023/06/05 01:28:04;;;;;;;2.10;2.00;;;;;;;;;;5046121;28;20207;-66
2023/06/05 01:30:33;;;;;;;2.83;1.83;;;;;;;;;;5044760;28;20199;-65
2023/06/05 01:33:03;;;;;;;2.03;1.83;;;;;;;;;;5043220;28;20200;-65
2023/06/05 01:35:33;;;;;;;2.28;2.08;;;;;;;;;;5046417;28;20253;-65
2023/06/05 01:38:02;;;;;;;2.28;2.03;;;;;;;;;;5042496;28;20203;-65
2023/06/05 01:40:31;;;;;;;2.30;2.10;;;;;;;;;;5044213;28;20204;-66
2023/06/05 01:42:59;;;;;;;2.15;2.05;;;;;;;;;;5044311;28;20293;-66
2023/06/05 01:45:27;;;;;;;2.00;1.90;;;;;;;;;;5043476;28;20207;-66
2023/06/05 01:47:54;;;;;;;2.20;2.00;;;;;;;;;;5040697;28;20199;-66
2023/06/05 01:50:21;;;;;;;2.00;1.75;;;;;;;;;;5043250;28;20235;-66
2023/06/05 01:52:52;;;;;;;3.03;1.90;;;;;;;;;;5043878;28;20255;-65
2023/06/05 01:55:20;;;;;;;1.85;1.75;;;;;;;;;;5039492;28;20234;-66
2023/06/05 01:57:48;;;;;;;2.90;1.80;;;;;;;;;;5042846;28;20269;-66
2023/06/05 02:00:15;;;;;;;1.90;1.80;;;;;;;;;;5046978;28;20261;-66
2023/06/05 02:02:43;;;;;;;3.15;1.90;;;;;;;;;;5041402;28;20226;-66
2023/06/05 02:05:10;;;;;;;2.13;1.92;;;;;;;;;;5043150;28;20199;-66
2023/06/05 02:07:39;;;;;;;2.05;1.90;;;;;;;;;;5042581;28;20199;-67
2023/06/05 02:10:07;;;;;;;1.73;1.63;;;;;;;;;;5040205;28;20204;-65
2023/06/05 02:12:34;;;;;;;1.58;1.48;;;;;;;;;;5041782;28;20199;-67
2023/06/05 02:15:03;;;;;;;1.80;1.70;;;;;;;;;;5041932;28;20207;-65
2023/06/05 02:17:30;;;;;;;2.53;2.00;;;;;;;;;;5045834;28;20208;-66
2023/06/05 02:19:57;;;;;;;2.20;2.00;;;;;;;;;;5042166;28;20203;-66
2023/06/05 02:22:24;;;;;;;2.15;1.95;;;;;;;;;;5040223;28;20212;-66
2023/06/05 02:24:53;;;;;;;4.35;1.73;;;;;;;;;;5043343;28;20290;-65
2023/06/05 02:27:20;;;;;;;3.45;1.88;;;;;;;;;;5042079;28;20200;-66
2023/06/05 02:29:47;;;;;;;2.63;1.60;;;;;;;;;;5043755;28;20206;-66
2023/06/05 02:32:16;;;;;;;1.83;1.73;;;;;;;;;;5040644;28;20208;-67
2023/06/05 02:34:47;;;;;;;2.15;1.95;;;;;;;;;;5042702;28;20211;-66
2023/06/05 02:37:14;;;;;;;2.95;2.05;;;;;;;;;;5044200;28;20232;-66
2023/06/05 02:39:41;;;;;;;1.95;1.85;;;;;;;;;;5045038;28;20211;-66
2023/06/05 02:42:09;;;;;;;1.90;1.80;;;;;;;;;;5044933;28;20219;-66
2023/06/05 02:44:36;;;;;;;1.95;1.80;;;;;;;;;;5043931;28;20227;-66
2023/06/05 02:47:03;;;;;;;2.70;1.70;;;;;;;;;;5041466;28;20202;-65
2023/06/05 02:49:32;;;;;;;3.20;1.85;;;;;;;;;;5045614;28;20199;-66
2023/06/05 02:51:59;;;;;;;1.77;1.67;;;;;;;;;;5045111;28;20206;-65
2023/06/05 02:54:28;;;;;;;1.70;1.60;;;;;;;;;;5041138;28;20214;-66
2023/06/05 02:56:56;;;;;;;1.80;1.60;;;;;;;;;;5043313;28;20200;-66
2023/06/05 02:59:24;;;;;;;3.33;1.65;;;;;;;;;;5038836;28;20230;-65
2023/06/05 03:01:52;;;;;;;2.00;1.50;;;;;;;;;;5042338;28;20224;-66
2023/06/05 03:04:20;;;;;;;1.83;1.52;;;;;;;;;;5040750;28;20204;-66
2023/06/05 03:06:50;;;;;;;1.92;1.67;;;;;;;;;;5045124;28;20207;-66
2023/06/05 03:09:17;;;;;;;2.35;1.70;;;;;;;;;;5042625;28;20203;-66
2023/06/05 03:11:44;;;;;;;1.70;1.60;;;;;;;;;;5042852;28;20204;-66
2023/06/05 03:14:12;;;;;;;3.03;1.70;;;;;;;;;;5043063;28;20203;-66
2023/06/05 03:16:41;;;;;;;1.70;1.50;;;;;;;;;;5045260;28;20282;-66
2023/06/05 03:19:09;;;;;;;1.70;1.48;;;;;;;;;;5043634;28;20209;-66
2023/06/05 03:21:37;;;;;;;1.98;1.67;;;;;;;;;;5044746;28;20205;-66
2023/06/05 03:24:06;;;;;;;1.90;1.67;;;;;;;;;;5044217;28;20242;-66
2023/06/05 03:26:33;;;;;;;1.90;1.80;;;;;;;;;;5048826;28;20206;-66
2023/06/05 03:29:01;;;;;;;3.47;1.90;;;;;;;;;;5047034;28;20200;-66
2023/06/05 03:31:28;;;;;;;1.70;1.60;;;;;;;;;;5048388;28;20204;-66
2023/06/05 03:33:55;;;;;;;1.73;1.63;;;;;;;;;;5047479;28;20200;-66
2023/06/05 03:36:22;;;;;;;1.80;1.70;;;;;;;;;;5048419;28;20203;-66
2023/06/05 03:38:50;;;;;;;2.70;1.70;;;;;;;;;;5049080;28;20211;-66
2023/06/05 03:41:18;;;;;;;1.70;1.58;;;;;;;;;;5046224;28;20208;-66
2023/06/05 03:43:46;;;;;;;1.83;1.73;;;;;;;;;;5046197;28;20230;-66
2023/06/05 03:46:18;;;;;;;2.58;1.85;;;;;;;;;;5047232;28;20241;-66
2023/06/05 03:48:45;;;;;;;1.80;1.70;;;;;;;;;;5047145;28;20211;-67
2023/06/05 03:51:12;;;;;;;2.22;1.70;;;;;;;;;;5048027;28;20210;-66
2023/06/05 03:53:43;;;;;;;1.90;1.65;;;;;;;;;;5042012;28;20200;-66
2023/06/05 03:56:11;;;;;;;1.67;1.50;;;;;;;;;;5048792;28;20277;-66
2023/06/05 03:58:39;;;;;;;2.67;1.70;;;;;;;;;;5049144;28;20208;-66
2023/06/05 04:01:07;;;;;;;1.80;1.70;;;;;;;;;;5049226;28;20203;-66
2023/06/05 04:03:36;;;;;;;1.85;1.63;;;;;;;;;;5046358;28;20220;-66
2023/06/05 04:06:04;;;;;;;2.10;1.50;;;;;;;;;;5044004;28;20206;-66
2023/06/05 04:08:32;;;;;;;2.42;1.58;;;;;;;;;;5047761;28;20223;-66
2023/06/05 04:10:59;;;;;;;1.58;1.42;;;;;;;;;;5044422;28;20254;-65
2023/06/05 04:13:26;;;;;;;2.90;1.77;;;;;;;;;;5049210;28;20195;-66
2023/06/05 04:15:55;;;;;;;2.95;1.77;;;;;;;;;;5048952;28;20203;-66
2023/06/05 04:18:23;;;;;;;2.70;1.45;;;;;;;;;;5044059;28;20216;-66
2023/06/05 04:20:50;;;;;;;1.60;1.50;;;;;;;;;;5041640;28;20200;-66
2023/06/05 04:23:17;;;;;;;1.60;1.50;;;;;;;;;;5045287;28;20250;-66
2023/06/05 04:25:45;;;;;;;4.45;1.67;;;;;;;;;;5047774;28;20199;-65
2023/06/05 04:28:13;;;;;;;1.67;1.58;;;;;;;;;;5045279;28;20200;-66
2023/06/05 04:30:40;;;;;;;1.67;1.58;;;;;;;;;;5044263;28;20230;-66
2023/06/05 04:33:09;;;;;;;1.95;1.52;;;;;;;;;;5044687;28;20199;-65
2023/06/05 04:35:36;;;;;;;1.77;1.60;;;;;;;;;;5048540;28;20210;-65
2023/06/05 04:38:03;;;;;;;1.63;1.52;;;;;;;;;;5042029;28;20208;-66
2023/06/05 04:40:31;;;;;;;3.00;1.90;;;;;;;;;;5046546;28;20206;-65
2023/06/05 04:42:58;;;;;;;1.67;1.58;;;;;;;;;;5050437;28;20242;-66
2023/06/05 04:45:25;;;;;;;1.90;1.80;;;;;;;;;;5043515;28;20287;-66
2023/06/05 04:47:53;;;;;;;1.88;1.70;;;;;;;;;;5042905;28;20212;-68
2023/06/05 04:50:26;;;;;;;2.92;2.00;;;;;;;;;;5048234;28;20208;-69
2023/06/05 04:52:54;;;;;;;2.55;1.88;;;;;;;;;;5046291;28;20191;-68
2023/06/05 04:55:21;;;;;;;2.75;1.55;;;;;;;;;;5043107;28;20262;-68
2023/06/05 04:57:48;;;;;;;1.90;1.70;;;;;;;;;;5043253;28;20212;-66
2023/06/05 05:00:16;;;;;;;1.65;1.55;;;;;;;;;;5043111;28;20291;-65
2023/06/05 05:02:43;;;;;;;2.22;1.92;;;;;;;;;;5047007;28;20227;-65
2023/06/05 05:05:13;;;;;;;2.47;1.75;;;;;;;;;;5041610;28;20223;-66
2023/06/05 05:07:41;;;;;;;1.83;1.70;;;;;;;;;;5045979;28;20204;-65
2023/06/05 05:10:09;;;;;;;2.33;1.80;;;;;;;;;;5044713;28;20204;-65
2023/06/05 05:12:36;;;;;;;1.92;1.70;;;;;;;;;;5046373;28;20211;-65
2023/06/05 05:15:04;;;;;;;1.75;1.60;;;;;;;;;;5044568;28;20253;-65
2023/06/05 05:17:31;;;;;;;1.70;1.60;;;;;;;;;;5045502;28;20265;-66
2023/06/05 05:19:59;;;;;;;2.40;1.83;;;;;;;;;;5043246;28;20196;-66
2023/06/05 05:22:26;;;;;;;2.03;1.83;;;;;;;;;;5047715;28;20211;-66
2023/06/05 05:24:55;;;;;;;2.22;1.75;;;;;;;;;;5043730;28;20229;-65
2023/06/05 05:27:24;;;;;;;1.85;1.70;;;;;;;;;;5042454;28;20204;-65
2023/06/05 05:29:51;;;;;;;2.90;1.52;;;;;;;;;;5045859;28;20298;-65
2023/06/05 05:32:19;;;;;;;3.00;2.13;;;;;;;;;;5045175;28;20253;-65
2023/06/05 05:34:46;;;;;;;1.90;1.80;;;;;;;;;;5046679;28;20199;-66
2023/06/05 05:37:13;;;;;;;1.92;1.75;;;;;;;;;;5044732;28;20204;-65
2023/06/05 05:39:40;;;;;;;1.95;1.75;;;;;;;;;;5044198;28;20232;-65
2023/06/05 05:42:09;;;;;;;2.00;1.85;;;;;;;;;;5046354;28;20204;-65
2023/06/05 05:44:36;;;;;;;2.38;2.10;;;;;;;;;;5044551;28;20223;-65
2023/06/05 05:47:04;;;;;;;1.70;1.60;;;;;;;;;;5043843;28;20274;-66
2023/06/05 05:49:31;;;;;;;2.72;1.60;;;;;;;;;;5044361;28;20200;-65
2023/06/05 05:51:58;;;;;;;3.33;2.10;;;;;;;;;;5040972;28;20197;-66
2023/06/05 05:54:27;;;;;;;2.25;1.70;;;;;;;;;;5046863;28;20207;-65
2023/06/05 05:56:54;;;;;;;1.60;1.50;;;;;;;;;;5043976;28;20257;-65
2023/06/05 05:59:22;;;;;;;1.85;1.75;;;;;;;;;;5042257;28;20206;-66
2023/06/05 06:01:51;;;;;;;1.98;1.85;;;;;;;;;;5045134;28;20264;-65
2023/06/05 06:04:18;;;;;;;2.58;1.90;;;;;;;;;;5038348;28;20344;-66
2023/06/05 06:06:47;;;;;;;1.90;1.80;;;;;;;;;;5045113;28;20210;-65
2023/06/05 06:09:16;;;;;;;1.73;1.60;;;;;;;;;;5043530;28;20202;-66
2023/06/05 06:11:43;;;;;;;2.50;1.60;;;;;;;;;;5041309;28;20200;-66
2023/06/05 06:14:11;;;;;;;1.70;1.60;;;;;;;;;;5043132;28;20215;-66
2023/06/05 06:16:40;;;;;;;1.70;1.60;;;;;;;;;;5042029;28;20222;-66
2023/06/05 06:19:08;;;;;;;1.67;1.40;;;;;;;;;;5047762;28;20263;-66
2023/06/05 06:21:35;;;;;;;2.30;1.63;;;;;;;;;;5042257;28;20261;-66
2023/06/05 06:24:04;;;;;;;3.15;1.40;;;;;;;;;;5040296;28;20227;-66
2023/06/05 06:26:31;;;;;;;1.50;1.40;;;;;;;;;;5043492;28;20211;-66
2023/06/05 06:28:59;;;;;;;2.35;1.70;;;;;;;;;;5040981;28;20204;-66
2023/06/05 06:31:27;;;;;;;6.45;1.60;;;;;;;;;;5040373;28;20204;-66
2023/06/05 06:33:56;;;;;;;1.50;1.40;;;;;;;;;;5044166;28;20202;-66
2023/06/05 06:36:23;;;;;;;1.60;1.50;;;;;;;;;;5041779;28;20270;-65
2023/06/05 06:38:50;;;;;;;2.03;1.67;;;;;;;;;;5044217;28;20211;-66
2023/06/05 06:41:18;;;;;;;1.70;1.60;;;;;;;;;;5046918;28;20203;-66
2023/06/05 06:43:45;;;;;;;3.35;1.55;;;;;;;;;;5045632;28;20219;-66
2023/06/05 06:46:12;;;;;;;4.05;1.67;;;;;;;;;;5042474;28;20211;-66
2023/06/05 06:48:40;;;;;;;3.63;1.60;;;;;;;;;;5041859;28;20207;-66
2023/06/05 06:51:08;;;;;;;2.00;1.60;;;;;;;;;;5043108;28;20239;-66
2023/06/05 06:53:35;;;;;;;1.60;1.50;;;;;;;;;;5041186;28;20208;-66
2023/06/05 06:56:03;;;;;;;2.70;1.40;;;;;;;;;;5044709;28;20195;-66
2023/06/05 06:58:31;;;;;;;2.53;1.60;;;;;;;;;;5046339;28;20239;-66
2023/06/05 07:00:58;;;;;;;1.50;1.40;;;;;;;;;;5039843;28;20207;-66
2023/06/05 07:03:25;;;;;;;2.13;1.73;;;;;;;;;;5045325;28;20218;-66
2023/06/05 07:05:52;;;;;;;1.67;1.58;;;;;;;;;;5042716;28;20195;-66
2023/06/05 07:08:21;;;;;;;2.70;1.60;;;;;;;;;;5043339;28;20242;-66
2023/06/05 07:10:48;;;;;;;3.63;1.50;;;;;;;;;;5040913;28;20204;-66
2023/06/05 07:13:15;;;;;;;1.52;1.42;;;;;;;;;;5046339;28;20246;-66
2023/06/05 07:15:42;;;;;;;1.60;1.40;;;;;;;;;;5045226;28;20213;-66
2023/06/05 07:18:10;;;;;;;2.55;1.58;;;;;;;;;;5043191;28;20203;-67
2023/06/05 07:20:37;;;;;;;2.55;1.55;;;;;;;;;;5041816;28;20203;-66
2023/06/05 07:23:05;;;;;;;1.92;1.60;;;;;;;;;;5043774;28;20267;-66
2023/06/05 07:25:33;;;;;;;1.60;1.50;;;;;;;;;;5040777;28;20235;-66
2023/06/05 07:28:01;;;;;;;1.40;1.30;;;;;;;;;;5042078;28;20204;-66
2023/06/05 07:30:28;;;;;;;1.65;1.55;;;;;;;;;;5040770;28;20215;-67
2023/06/05 07:32:55;;;;;;;1.35;1.25;;;;;;;;;;5043815;28;20211;-66
2023/06/05 07:35:23;;;;;;;1.60;1.50;;;;;;;;;;5039699;28;20199;-66
2023/06/05 07:37:51;;;;;;;5.43;1.60;;;;;;;;;;5038011;28;20222;-66
2023/06/05 07:40:19;;;;;;;1.90;1.60;;;;;;;;;;5044443;28;20203;-66
2023/06/05 07:42:48;;;;;;;1.50;1.40;;;;;;;;;;5048827;28;20212;-66
2023/06/05 07:45:21;;;;;;;1.73;1.50;;;;;;;;;;5041493;28;20230;-66
2023/06/05 07:47:48;;;;;;;1.60;1.50;;;;;;;;;;5039601;28;20208;-66
2023/06/05 07:50:15;;;;;;;1.80;1.70;;;;;;;;;;5040775;28;20197;-68
2023/06/05 07:52:42;;;;;;;1.80;1.40;;;;;;;;;;5045647;28;20208;-67
2023/06/05 07:55:09;;;;;;;2.95;1.48;;;;;;;;;;5046663;28;20196;-66
2023/06/05 07:57:37;;;;;;;1.60;1.50;;;;;;;;;;5044800;28;20204;-66
2023/06/05 08:00:09;;;;;;;1.65;1.55;;;;;;;;;;5042275;28;20208;-66
2023/06/05 08:02:37;;;;;;;1.70;1.50;;;;;;;;;;5050495;28;20203;-67
2023/06/05 08:07:46;;;;;;;1.40;1.30;;;;;;;;;;5050713;22;20237;-95
2023/06/05 08:10:14;;;;;;;1.50;1.38;;;;;;;;;;5033628;28;20211;-95
2023/06/05 08:12:42;;;;;;;1.70;1.60;;;;;;;;;;5037557;28;20211;-96
2023/06/05 08:15:11;;;;;;;1.40;1.30;;;;;;;;;;5031596;28;20199;-94
2023/06/05 08:17:38;;;;;;;3.63;1.52;;;;;;;;;;5032375;28;20278;-95
2023/06/05 08:20:09;;;;;;;3.55;1.40;;;;;;;;;;5033049;28;20204;-94
2023/06/05 08:22:39;;;;;;;3.05;1.50;;;;;;;;;;5027407;28;20273;-94
2023/06/05 08:25:08;;;;;;;2.45;1.55;;;;;;;;;;5028524;28;20306;-94
2023/06/05 08:27:35;;;;;;;2.35;1.60;;;;;;;;;;5029568;28;20298;-95
2023/06/05 08:30:03;;;;;;;1.63;1.45;;;;;;;;;;5031387;28;20203;-96
2023/06/05 08:32:32;;;;;;;2.97;1.27;;;;;;;;;;5034144;28;20213;-95
2023/06/05 08:34:59;;;;;;;3.50;1.60;;;;;;;;;;5036639;28;20193;-95
2023/06/05 08:37:28;;;;;;;2.33;1.52;;;;;;;;;;5033369;28;20208;-96
2023/06/05 08:39:58;;;;;;;1.38;1.27;;;;;;;;;;5039177;28;20204;-95
2023/06/05 08:42:28;;;;;;;2.70;1.55;;;;;;;;;;5036047;28;20240;-96
2023/06/05 08:44:55;;;;;;;3.70;1.60;;;;;;;;;;5033172;28;20228;-96
2023/06/05 08:47:24;;;;;;;1.90;1.33;;;;;;;;;;5037107;28;20238;-95
2023/06/05 08:49:54;;;;;;;1.30;1.30;;;;;;;;;;5037260;28;20214;-95
2023/06/05 08:52:22;;;;;;;2.17;1.70;;;;;;;;;;5030342;28;20278;-96
2023/06/05 08:54:50;;;;;;;1.83;1.50;;;;;;;;;;5042108;28;20195;-96
2023/06/05 08:57:18;;;;;;;1.40;1.30;;;;;;;;;;5032970;28;20208;-95
2023/06/05 08:59:46;;;;;;;3.97;1.50;;;;;;;;;;5034498;28;20295;-95
2023/06/05 09:02:13;;;;;;;1.60;1.50;;;;;;;;;;5030306;28;20219;-95
2023/06/05 09:04:40;;;;;;;2.83;1.58;;;;;;;;;;5034043;28;20219;-95
2023/06/05 09:07:10;;;;;;;1.52;1.42;;;;;;;;;;5034557;28;20270;-95
2023/06/05 09:09:38;;;;;;;1.80;1.50;;;;;;;;;;5046537;28;20203;-96
2023/06/05 09:12:06;;;;;;;1.50;1.40;;;;;;;;;;5034704;28;20246;-96
2023/06/05 09:14:34;;;;;;;1.92;1.45;;;;;;;;;;5035211;28;20290;-96
2023/06/05 09:17:01;;;;;;;1.40;1.30;;;;;;;;;;5036236;28;20211;-96
2023/06/05 09:19:37;;;;;;;2.42;1.33;;;;;;;;;;5035045;28;20246;-95
2023/06/05 09:22:06;;;;;;;1.60;1.50;;;;;;;;;;5033923;28;20212;-96
2023/06/05 09:24:35;;;;;;;1.73;1.50;;;;;;;;;;5038995;28;20323;-96
2023/06/05 09:27:03;;;;;;;2.95;2.10;;;;;;;;;;5040296;28;20215;-96
2023/06/05 09:29:32;;;;;;;2.28;1.30;;;;;;;;;;5034267;28;20220;-96
2023/06/05 09:31:59;;;;;;;2.28;1.52;;;;;;;;;;5037915;28;20219;-96
2023/06/05 09:34:30;;;;;;;1.95;1.35;;;;;;;;;;5036084;28;20208;-96
2023/06/05 09:36:58;;;;;;;1.50;1.40;;;;;;;;;;5035828;28;20232;-96
2023/06/05 09:39:26;;;;;;;1.52;1.40;;;;;;;;;;5036601;28;20246;-96
2023/06/05 09:41:55;;;;;;;1.30;1.20;;;;;;;;;;5039518;28;20275;-96
2023/06/05 09:44:23;;;;;;;2.65;1.70;;;;;;;;;;5034069;28;20238;-95
2023/06/05 09:46:57;;;;;;;2.78;1.50;;;;;;;;;;5025269;28;20204;-96
2023/06/05 09:49:29;;;;;;;1.52;1.42;;;;;;;;;;5032119;28;20203;-96
2023/06/05 09:51:57;;;;;;;3.30;1.60;;;;;;;;;;5029236;28;20215;-96
2023/06/05 09:54:26;;;;;;;2.13;1.58;;;;;;;;;;5029810;28;20243;-95
2023/06/05 09:56:57;;;;;;;2.78;1.60;;;;;;;;;;5029237;28;20200;-96
2023/06/05 09:59:28;;;;;;;1.67;1.58;;;;;;;;;;5029274;28;20206;-96
2023/06/05 10:01:56;;;;;;;3.08;1.90;;;;;;;;;;5025924;28;20218;-96
2023/06/05 10:04:24;;;;;;;1.63;1.52;;;;;;;;;;5028187;28;20243;-96
2023/06/05 10:06:53;;;;;;;2.45;1.70;;;;;;;;;;5030196;28;20236;-95
2023/06/05 10:09:20;;;;;;;1.88;1.70;;;;;;;;;;5028619;28;20208;-96
2023/06/05 10:11:51;;;;;;;1.88;1.77;;;;;;;;;;5027083;28;20201;-95
2023/06/05 10:14:20;;;;;;;2.53;1.58;;;;;;;;;;5033792;28;20215;-95
2023/06/05 10:16:50;;;;;;;2.28;1.63;;;;;;;;;;5038036;28;20299;-95
2023/06/05 10:19:19;;;;;;;1.55;1.45;;;;;;;;;;5037373;28;20223;-95
2023/06/05 10:21:48;;;;;;;3.25;1.60;;;;;;;;;;5035458;28;20211;-94
2023/06/05 10:24:17;;;;;;;2.10;1.90;;;;;;;;;;5028772;28;20247;-95
2023/06/05 10:26:56;;;;;;;14.82;2.88;;;;;;;;;;5035354;28;20208;-96
2023/06/05 10:29:36;;;;;;;4.88;2.10;;;;;;;;;;5028241;28;20208;-95
2023/06/05 10:32:05;;;;;;;3.95;1.73;;;;;;;;;;5031911;28;20247;-95
2023/06/05 10:34:42;;;;;;;1.95;1.65;;;;;;;;;;5031709;28;20200;-96
2023/06/05 10:37:21;;;;;;;8.35;2.20;;;;;;;;;;5033826;28;20218;-95
2023/06/05 10:39:50;;;;;;;2.33;1.50;;;;;;;;;;5025370;28;20212;-94
2023/06/05 10:42:24;;;;;;;2.25;1.60;;;;;;;;;;5026379;28;20204;-93
2023/06/05 10:44:53;;;;;;;1.80;1.70;;;;;;;;;;5028578;28;20244;-93
2023/06/05 10:47:39;;;;;;;1.67;1.55;;;;;;;;;;5028911;28;20243;-94
2023/06/05 10:50:21;;;;;;;2.67;1.85;;;;;;;;;;5031867;28;20295;-95
2023/06/05 10:52:49;;;;;;;2.65;1.83;;;;;;;;;;5029497;28;20231;-96
2023/06/05 10:55:17;;;;;;;3.63;1.52;;;;;;;;;;5028014;28;20227;-95
2023/06/05 10:58:03;;;;;;;1.80;1.70;;;;;;;;;;5030760;28;20222;-94
2023/06/05 11:00:32;;;;;;;2.30;1.58;;;;;;;;;;5033893;28;20208;-95
2023/06/05 11:03:01;;;;;;;2.92;1.80;;;;;;;;;;5031585;28;20207;-95
2023/06/05 11:05:29;;;;;;;2.40;1.80;;;;;;;;;;5027478;28;20278;-95
2023/06/05 11:08:14;;;;;;;2.20;1.55;;;;;;;;;;5027697;28;20236;-94
2023/06/05 11:10:56;;;;;;;5.47;2.10;;;;;;;;;;5028148;28;20211;-94
2023/06/05 11:13:24;;;;;;;2.42;1.70;;;;;;;;;;5031235;28;20231;-94
2023/06/05 11:15:56;;;;;;;4.25;1.95;;;;;;;;;;5027729;28;20196;-95
2023/06/05 11:18:34;;;;;;;3.78;1.83;;;;;;;;;;5037623;28;20203;-94
2023/06/05 11:21:02;;;;;;;2.08;1.75;;;;;;;;;;5033911;28;20211;-95
2023/06/05 11:23:29;;;;;;;2.05;1.80;;;;;;;;;;5038099;28;20207;-95
2023/06/05 11:25:58;;;;;;;3.00;1.55;;;;;;;;;;5033200;28;20228;-95
2023/06/05 11:28:43;;;;;;;3.25;1.73;;;;;;;;;;5030843;28;20200;-95
2023/06/05 11:31:12;;;;;;;2.13;2.00;;;;;;;;;;5028421;28;20278;-95
2023/06/05 11:33:40;;;;;;;1.90;1.80;;;;;;;;;;5028855;28;20254;-95
2023/06/05 11:36:08;;;;;;;1.95;1.80;;;;;;;;;;5034341;28;20249;-95
2023/06/05 11:38:36;;;;;;;1.98;1.80;;;;;;;;;;5032751;28;20208;-95
2023/06/05 11:41:08;;;;;;;2.05;1.88;;;;;;;;;;5035444;28;20294;-95
2023/06/05 11:43:42;;;;;;;2.03;1.83;;;;;;;;;;5029853;28;20228;-94
2023/06/05 11:46:12;;;;;;;2.28;1.60;;;;;;;;;;5028279;28;20223;-94
2023/06/05 11:48:45;;;;;;;2.00;1.80;;;;;;;;;;5041546;28;20212;-95
2023/06/05 11:51:13;;;;;;;2.33;1.90;;;;;;;;;;5034135;28;20285;-95
2023/06/05 11:53:46;;;;;;;2.50;1.88;;;;;;;;;;5032278;28;20266;-95
2023/06/05 11:56:16;;;;;;;2.95;2.00;;;;;;;;;;5038169;28;20243;-94
2023/06/05 11:58:44;;;;;;;2.45;1.85;;;;;;;;;;5034580;28;20204;-94
2023/06/05 12:01:17;;;;;;;1.90;1.80;;;;;;;;;;5032304;28;20232;-94
2023/06/05 12:03:45;;;;;;;2.58;1.88;;;;;;;;;;5032108;28;20200;-94
2023/06/05 12:06:13;;;;;;;2.17;1.90;;;;;;;;;;5026798;28;20269;-95
2023/06/05 12:08:41;;;;;;;2.72;1.70;;;;;;;;;;5024731;28;20212;-94
2023/06/05 12:11:21;;;;;;;2.72;1.70;;;;;;;;;;5029649;28;20266;-95
2023/06/05 12:13:50;;;;;;;2.70;1.90;;;;;;;;;;5024394;28;20227;-94
2023/06/05 12:16:20;;;;;;;3.03;2.03;;;;;;;;;;5026992;28;20211;-94
2023/06/05 12:18:49;;;;;;;2.83;1.95;;;;;;;;;;5024862;28;20286;-94
2023/06/05 12:21:23;;;;;;;4.68;2.08;;;;;;;;;;5031744;28;20282;-95
2023/06/05 12:23:51;;;;;;;2.15;1.77;;;;;;;;;;5028620;28;20242;-93
2023/06/05 12:26:18;;;;;;;2.05;1.85;;;;;;;;;;5025614;28;20255;-94
2023/06/05 12:28:47;;;;;;;4.15;2.30;;;;;;;;;;5026790;28;20223;-95
2023/06/05 12:31:33;;;;;;;3.97;1.90;;;;;;;;;;5022008;28;20290;-94
2023/06/05 12:34:02;;;;;;;2.10;1.90;;;;;;;;;;5022938;28;20212;-95
2023/06/05 12:36:31;;;;;;;3.53;1.90;;;;;;;;;;5025610;28;20226;-95
2023/06/05 12:39:03;;;;;;;3.78;1.83;;;;;;;;;;5026964;28;20220;-94
2023/06/05 12:41:30;;;;;;;2.22;1.98;;;;;;;;;;5026939;28;20282;-94
2023/06/05 12:44:01;;;;;;;1.98;1.83;;;;;;;;;;5027861;28;20212;-93
2023/06/05 12:46:29;;;;;;;4.57;1.80;;;;;;;;;;5023635;28;20282;-93
2023/06/05 12:48:57;;;;;;;2.20;2.00;;;;;;;;;;5020953;28;20246;-94
2023/06/05 12:51:27;;;;;;;3.65;2.13;;;;;;;;;;5028361;28;20228;-93
2023/06/05 12:53:54;;;;;;;5.43;2.08;;;;;;;;;;5033623;28;20212;-92
2023/06/05 12:56:24;;;;;;;2.33;2.13;;;;;;;;;;5030680;28;20239;-93
2023/06/05 12:58:52;;;;;;;4.28;2.00;;;;;;;;;;5027884;28;20283;-94
2023/06/05 13:01:19;;;;;;;2.20;2.00;;;;;;;;;;5035077;28;20278;-94
2023/06/05 13:03:47;;;;;;;2.80;2.20;;;;;;;;;;5025449;28;20217;-94
2023/06/05 13:06:14;;;;;;;2.95;1.85;;;;;;;;;;5030166;28;20247;-94
2023/06/05 13:08:44;;;;;;;2.30;2.10;;;;;;;;;;5029748;28;20231;-95
2023/06/05 13:11:12;;;;;;;2.45;1.90;;;;;;;;;;5034947;28;20204;-94
2023/06/05 13:13:40;;;;;;;2.90;2.00;;;;;;;;;;5031239;28;20219;-94
2023/06/05 13:16:08;;;;;;;3.08;2.13;;;;;;;;;;5034101;28;20261;-94
2023/06/05 13:18:36;;;;;;;2.13;2.03;;;;;;;;;;5013129;28;20238;-94
2023/06/05 13:21:04;;;;;;;2.67;2.20;;;;;;;;;;5034729;28;20204;-94
2023/06/05 13:23:32;;;;;;;2.00;1.90;;;;;;;;;;5037080;28;20204;-93
2023/06/05 13:26:01;;;;;;;2.00;1.90;;;;;;;;;;5028889;28;20257;-93
2023/06/05 13:28:33;;;;;;;4.05;2.10;;;;;;;;;;5034855;28;20278;-94
2023/06/05 13:31:01;;;;;;;6.53;1.90;;;;;;;;;;5031542;28;20269;-94
2023/06/05 13:33:29;;;;;;;4.32;2.00;;;;;;;;;;5024783;28;20204;-95
2023/06/05 13:35:56;;;;;;;3.42;2.05;;;;;;;;;;5024621;28;20224;-95
2023/06/05 13:38:24;;;;;;;2.25;2.13;;;;;;;;;;5027156;28;20274;-94
2023/06/05 13:40:51;;;;;;;2.15;2.05;;;;;;;;;;5022354;28;20212;-94
2023/06/05 13:43:20;;;;;;;3.00;1.83;;;;;;;;;;5026874;28;20207;-94
2023/06/05 13:45:48;;;;;;;4.63;2.25;;;;;;;;;;5024542;28;20213;-93
2023/06/05 13:48:15;;;;;;;2.10;2.00;;;;;;;;;;5014706;28;20227;-94
2023/06/05 13:50:43;;;;;;;3.30;2.20;;;;;;;;;;5022105;28;20216;-94
2023/06/05 13:53:10;;;;;;;2.17;2.05;;;;;;;;;;5021943;28;20231;-94
2023/06/05 13:55:39;;;;;;;5.30;1.95;;;;;;;;;;5023121;28;20286;-94
2023/06/05 13:58:07;;;;;;;3.00;1.80;;;;;;;;;;5027881;28;20235;-93
2023/06/05 14:00:36;;;;;;;2.17;1.98;;;;;;;;;;5027474;28;20254;-94
2023/06/05 14:03:03;;;;;;;2.33;1.98;;;;;;;;;;5027638;28;20216;-93
2023/06/05 14:05:30;;;;;;;2.95;2.10;;;;;;;;;;5024376;28;20279;-94
2023/06/05 14:07:58;;;;;;;3.15;1.90;;;;;;;;;;5023595;28;20297;-94
2023/06/05 14:10:26;;;;;;;2.67;1.98;;;;;;;;;;5022770;28;20271;-95
2023/06/05 14:12:54;;;;;;;4.80;2.17;;;;;;;;;;5024082;28;20223;-94
2023/06/05 14:15:22;;;;;;;5.05;2.10;;;;;;;;;;5023303;28;20303;-96
2023/06/05 14:17:53;;;;;;;2.03;1.80;;;;;;;;;;5021768;28;20204;-96
2023/06/05 14:20:21;;;;;;;2.67;1.98;;;;;;;;;;5026941;28;20210;-96
2023/06/05 14:22:49;;;;;;;3.55;1.88;;;;;;;;;;5022523;28;20199;-95
2023/06/05 14:25:16;;;;;;;2.15;1.95;;;;;;;;;;5019135;28;20290;-94
2023/06/05 14:27:43;;;;;;;2.17;1.98;;;;;;;;;;5024012;28;20239;-95
2023/06/05 14:30:11;;;;;;;2.45;2.17;;;;;;;;;;5029053;28;20215;-94
2023/06/05 14:32:39;;;;;;;3.22;1.88;;;;;;;;;;5026267;28;20227;-96
2023/06/05 14:35:08;;;;;;;1.95;1.83;;;;;;;;;;5027683;28;20234;-96
2023/06/05 14:37:35;;;;;;;3.88;2.08;;;;;;;;;;5022167;28;20246;-94
2023/06/05 14:40:04;;;;;;;1.90;1.80;;;;;;;;;;5026638;28;20235;-93
2023/06/05 14:42:31;;;;;;;3.38;2.28;;;;;;;;;;5025353;28;20210;-96
2023/06/05 14:44:59;;;;;;;2.10;1.95;;;;;;;;;;5020809;28;20211;-93
2023/06/05 14:47:26;;;;;;;2.03;1.90;;;;;;;;;;5020635;28;20271;-95
2023/06/05 14:49:54;;;;;;;4.75;2.17;;;;;;;;;;5028626;28;20235;-93
2023/06/05 14:52:23;;;;;;;1.90;1.80;;;;;;;;;;5026109;28;20242;-95
2023/06/05 14:54:50;;;;;;;4.07;2.20;;;;;;;;;;5029862;28;20231;-94